Time;durP1;ratioP1;P1;durP2;ratioP2;P2;SDS_P1;SDS_P2;PMS_P1;PMS_P2;Temp;Humidity;BMP_temperature;BMP_pressure;BME280_temperature;BME280_humidity;BME280_pressure;Samples;Min_cycle;Max_cycle;Signal;HPM_P1;HPM_P2
2022/12/06 00:01:27;;;;;;;28.47;16.13;;;-5.60;99.90;;;;;;5015642;28;20199;-66
2022/12/06 00:03:56;;;;;;;30.63;16.87;;;-5.60;99.90;;;;;;5014121;28;20214;-65
2022/12/06 00:06:24;;;;;;;30.40;16.17;;;-5.60;99.90;;;;;;5015539;28;20242;-65
2022/12/06 00:08:52;;;;;;;28.67;16.13;;;-5.60;99.90;;;;;;5051445;28;20208;-67
2022/12/06 00:11:24;;;;;;;31.40;16.20;;;-5.60;99.90;;;;;;5034375;28;20212;-68
2022/12/06 00:13:53;;;;;;;28.27;17.47;;;-5.50;99.90;;;;;;5033657;28;20221;-68
2022/12/06 00:16:20;;;;;;;33.57;17.50;;;-5.50;99.90;;;;;;5034101;28;20202;-67
2022/12/06 00:18:47;;;;;;;35.00;18.73;;;-5.50;99.90;;;;;;5033993;28;20720;-67
2022/12/06 00:21:16;;;;;;;41.53;21.63;;;-5.50;99.90;;;;;;5034155;28;20202;-68
2022/12/06 00:23:45;;;;;;;42.22;22.13;;;-5.50;99.90;;;;;;5031820;28;20447;-67
2022/12/06 00:26:13;;;;;;;42.33;22.10;;;-5.50;99.90;;;;;;5030647;28;20241;-67
2022/12/06 00:28:41;;;;;;;43.37;22.07;;;-5.50;99.90;;;;;;5032010;28;20693;-67
2022/12/06 00:31:10;;;;;;;48.27;23.40;;;-5.40;99.90;;;;;;5033901;28;20212;-67
2022/12/06 00:33:37;;;;;;;49.77;23.00;;;-5.40;99.90;;;;;;5033435;28;20212;-67
2022/12/06 00:36:07;;;;;;;48.50;23.00;;;-5.40;99.90;;;;;;5033085;28;20213;-67
2022/12/06 00:38:35;;;;;;;48.53;23.50;;;-5.50;99.90;;;;;;5033275;28;20202;-67
2022/12/06 00:41:04;;;;;;;34.00;18.93;;;-5.50;99.90;;;;;;5033229;28;20257;-67
2022/12/06 00:43:31;;;;;;;30.30;16.33;;;-5.40;99.90;;;;;;5033141;28;20210;-67
2022/12/06 00:45:59;;;;;;;27.97;16.37;;;-5.40;99.90;;;;;;5031014;28;20536;-68
2022/12/06 00:48:26;;;;;;;28.30;15.00;;;-5.40;99.90;;;;;;5033230;28;20776;-68
2022/12/06 00:50:53;;;;;;;26.03;13.97;;;-5.40;99.90;;;;;;5032625;28;20210;-67
2022/12/06 01:04:43;;;;;;;22.03;12.40;;;-5.40;99.90;;;;;;5065248;27;20532;-66
2022/12/06 01:07:09;;;;;;;23.00;12.70;;;-5.10;99.90;;;;;;5065259;28;20538;-65
2022/12/06 01:09:36;;;;;;;21.13;13.20;;;-5.20;99.90;;;;;;5064641;28;20201;-67
2022/12/06 01:12:03;;;;;;;26.63;13.10;;;-5.20;99.90;;;;;;5064662;28;20331;-66
2022/12/06 01:14:30;;;;;;;24.17;13.63;;;-5.20;99.90;;;;;;5064934;28;20210;-66
2022/12/06 01:16:57;;;;;;;28.20;16.27;;;-5.30;99.90;;;;;;5064284;28;20211;-65
2022/12/06 01:19:23;;;;;;;27.77;16.30;;;-5.30;99.90;;;;;;5064676;28;20205;-65
2022/12/06 01:21:51;;;;;;;24.50;14.00;;;-5.40;99.90;;;;;;5063116;28;20205;-67
2022/12/06 01:24:18;;;;;;;24.63;14.23;;;-5.50;99.90;;;;;;5064804;28;20204;-65
2022/12/06 01:26:45;;;;;;;25.57;13.90;;;-5.50;99.90;;;;;;5047151;28;20700;-66
2022/12/06 01:29:12;;;;;;;22.33;12.97;;;-5.50;99.90;;;;;;5044881;28;20662;-66
2022/12/06 01:31:39;;;;;;;23.93;13.80;;;-5.60;99.90;;;;;;5045151;28;20210;-65
2022/12/06 01:34:06;;;;;;;25.83;15.23;;;-5.70;99.90;;;;;;5044775;28;20230;-67
2022/12/06 01:36:33;;;;;;;27.47;16.03;;;-5.70;99.90;;;;;;5044832;28;20213;-66
2022/12/06 01:39:05;;;;;;;23.90;15.20;;;-5.80;99.90;;;;;;5044865;28;20208;-66
2022/12/06 01:41:32;;;;;;;28.10;16.63;;;-5.80;99.90;;;;;;5044739;28;20229;-65
2022/12/06 01:43:58;;;;;;;33.03;18.73;;;-5.90;99.90;;;;;;5044892;28;20202;-65
2022/12/06 01:46:29;;;;;;;29.17;17.53;;;-5.90;99.90;;;;;;5056755;28;20276;-66
2022/12/06 01:49:03;;;;;;;29.20;17.60;;;-6.00;99.90;;;;;;5044772;28;20212;-66
2022/12/06 01:51:30;;;;;;;23.87;15.50;;;-6.00;99.90;;;;;;5044632;28;20213;-65
2022/12/06 01:54:01;;;;;;;25.13;14.00;;;-6.10;99.90;;;;;;5044768;28;20225;-66
2022/12/06 01:56:28;;;;;;;25.13;14.83;;;-6.10;99.90;;;;;;5030081;28;20203;-66
2022/12/06 01:58:57;;;;;;;26.07;14.83;;;-6.10;99.90;;;;;;5024782;28;20685;-66
2022/12/06 02:01:26;;;;;;;26.47;16.10;;;-6.10;99.90;;;;;;5024527;28;20202;-67
2022/12/06 02:03:55;;;;;;;26.40;15.13;;;-6.20;99.90;;;;;;5020578;28;20235;-65
2022/12/06 02:06:22;;;;;;;27.90;15.23;;;-6.20;99.90;;;;;;5011287;28;20221;-66
2022/12/06 02:08:50;;;;;;;29.13;16.27;;;-6.20;99.90;;;;;;5010894;28;20203;-66
2022/12/06 02:11:18;;;;;;;27.50;16.13;;;-6.30;99.90;;;;;;5011067;28;20211;-66
2022/12/06 02:13:46;;;;;;;29.97;16.53;;;-6.30;99.90;;;;;;5011361;28;20222;-66
2022/12/06 02:16:35;;;;;;;29.87;15.73;;;-6.30;99.90;;;;;;5019098;28;20210;-66
2022/12/06 02:19:16;;;;;;;29.73;15.40;;;-6.40;99.90;;;;;;5027409;28;20566;-66
2022/12/06 02:21:50;;;;;;;26.03;16.13;;;-6.40;99.90;;;;;;5031231;28;20504;-66
2022/12/06 02:24:43;;;;;;;30.43;16.43;;;-6.40;99.90;;;;;;5029527;28;20193;-65
2022/12/06 02:27:32;;;;;;;24.73;15.47;;;-6.40;99.90;;;;;;5030667;28;20547;-66
2022/12/06 02:30:09;;;;;;;23.93;14.97;;;-6.40;99.90;;;;;;5030700;28;20190;-67
2022/12/06 02:32:45;;;;;;;27.43;15.30;;;-6.40;99.90;;;;;;5030957;28;20788;-67
2022/12/06 06:22:14;;;;;;;46.93;21.87;;;-7.30;99.90;;;;;;5233769;23;20335;-63
2022/12/06 06:24:42;;;;;;;48.90;24.37;;;-7.20;99.90;;;;;;5028866;28;20225;-64
2022/12/06 06:27:10;;;;;;;47.30;23.93;;;-7.00;99.90;;;;;;5029265;28;20228;-64
2022/12/06 06:29:37;;;;;;;50.77;24.17;;;-6.90;99.90;;;;;;5029043;28;20217;-65
2022/12/06 06:32:04;;;;;;;54.37;27.03;;;-6.70;99.90;;;;;;5029086;28;20303;-64
2022/12/06 06:34:31;;;;;;;56.00;27.87;;;-6.60;99.90;;;;;;5028990;28;20662;-64
2022/12/06 06:36:58;;;;;;;51.07;27.30;;;-6.50;99.90;;;;;;5028883;28;20589;-64
2022/12/06 06:39:26;;;;;;;59.20;27.93;;;-6.40;99.90;;;;;;5029108;28;20213;-65
2022/12/06 06:41:53;;;;;;;55.13;25.13;;;-6.30;99.90;;;;;;5028815;28;20206;-64
2022/12/06 06:44:20;;;;;;;53.90;26.07;;;-6.20;99.90;;;;;;5028792;28;20206;-63
2022/12/06 06:46:46;;;;;;;45.60;23.27;;;-6.10;99.90;;;;;;5028505;28;20221;-65
2022/12/06 06:49:13;;;;;;;44.40;21.93;;;-6.10;99.90;;;;;;5028332;28;20195;-63
2022/12/06 06:51:40;;;;;;;46.40;21.97;;;-6.00;99.90;;;;;;5028525;28;20202;-65
2022/12/06 06:54:07;;;;;;;39.63;21.10;;;-5.90;99.90;;;;;;5028864;28;20210;-64
2022/12/06 06:56:35;;;;;;;40.93;22.43;;;-5.90;99.90;;;;;;5028617;28;20654;-64
2022/12/06 06:59:02;;;;;;;39.93;20.23;;;-5.80;99.90;;;;;;5028499;28;20230;-65
2022/12/06 07:01:29;;;;;;;36.53;20.13;;;-5.70;99.90;;;;;;5028361;28;20301;-64
2022/12/06 07:03:56;;;;;;;39.23;19.97;;;-5.70;99.90;;;;;;5028439;28;20206;-64
2022/12/06 07:06:22;;;;;;;38.30;20.87;;;-5.70;99.90;;;;;;5028293;28;20230;-64
2022/12/06 07:08:49;;;;;;;34.57;17.90;;;-5.60;99.90;;;;;;5026746;28;20662;-63
2022/12/06 07:11:16;;;;;;;38.93;21.00;;;-5.60;99.90;;;;;;5026313;28;20230;-64
2022/12/06 07:13:44;;;;;;;35.67;21.27;;;-5.50;99.90;;;;;;5026694;28;20550;-64
2022/12/06 07:16:16;;;;;;;33.70;19.73;;;-5.40;99.90;;;;;;5027512;28;20575;-65
2022/12/06 07:18:43;;;;;;;37.23;17.93;;;-5.40;99.90;;;;;;5027056;28;20214;-64
2022/12/06 07:21:13;;;;;;;40.03;19.67;;;-5.30;99.90;;;;;;5026362;28;20230;-64
2022/12/06 07:23:40;;;;;;;57.40;24.50;;;-5.30;99.90;;;;;;5027301;28;20214;-65
2022/12/06 07:26:09;;;;;;;63.40;26.63;;;-5.20;99.90;;;;;;5026894;28;20206;-63
2022/12/06 07:28:37;;;;;;;52.93;23.50;;;-5.20;99.90;;;;;;5025793;28;20206;-65
2022/12/06 07:31:10;;;;;;;40.43;20.20;;;-5.10;99.90;;;;;;5014803;28;20531;-63
2022/12/06 07:33:37;;;;;;;37.60;21.13;;;-5.00;99.90;;;;;;5014646;28;20635;-65
2022/12/06 07:36:05;;;;;;;43.33;23.47;;;-5.00;99.90;;;;;;5012711;28;20225;-65
2022/12/06 07:38:32;;;;;;;48.03;26.80;;;-4.90;99.90;;;;;;5012924;28;20740;-66
2022/12/06 07:41:01;;;;;;;61.47;30.17;;;-4.90;99.90;;;;;;5014477;28;20213;-64
2022/12/06 07:46:14;;;;;;;41.27;21.63;;;-4.70;99.90;;;;;;5014326;28;20209;-65
2022/12/06 14:52:01;;;;;;;26.07;13.63;;;-4.00;99.90;;;;;;5584106;22;20996;-64
2022/12/06 14:54:35;;;;;;;22.50;12.83;;;-3.90;99.90;;;;;;5067006;28;20651;-63
2022/12/06 14:57:03;;;;;;;20.73;12.40;;;-3.80;99.90;;;;;;5067442;28;20556;-64
2022/12/06 14:59:31;;;;;;;19.90;11.53;;;-3.70;99.90;;;;;;5068774;28;20205;-65
2022/12/06 15:01:58;;;;;;;20.80;11.70;;;-3.60;99.90;;;;;;5068465;28;20722;-66
2022/12/06 15:04:29;;;;;;;23.67;13.17;;;-3.50;99.90;;;;;;5068728;28;20211;-63
2022/12/06 15:06:57;;;;;;;19.57;11.50;;;-3.40;99.90;;;;;;5067681;28;20628;-63
2022/12/06 15:09:28;;;;;;;18.77;11.70;;;-3.40;99.90;;;;;;5070582;28;20215;-64
2022/12/06 15:15:03;;;;;;;22.10;12.53;;;-3.30;99.90;;;;;;5067963;28;20219;-66
2022/12/06 15:17:30;;;;;;;18.50;11.57;;;-3.20;99.90;;;;;;5066943;28;20208;-63
2022/12/06 15:19:57;;;;;;;19.83;11.83;;;-3.20;99.90;;;;;;5064609;28;20204;-65
2022/12/06 15:22:26;;;;;;;22.00;11.33;;;-3.10;99.90;;;;;;5068284;28;20204;-66
2022/12/06 15:24:58;;;;;;;19.70;10.83;;;-3.10;99.90;;;;;;5067538;28;20219;-64
2022/12/06 15:27:26;;;;;;;16.30;10.07;;;-3.10;99.90;;;;;;5065123;28;20212;-65
2022/12/06 15:29:53;;;;;;;17.23;10.33;;;-3.10;99.90;;;;;;5068265;28;20247;-63
2022/12/06 15:32:23;;;;;;;17.70;10.37;;;-3.00;99.90;;;;;;5068603;28;20201;-64
2022/12/06 15:34:50;;;;;;;16.93;10.33;;;-3.00;99.90;;;;;;5068592;28;20220;-63
2022/12/06 15:37:17;;;;;;;18.10;10.23;;;-2.90;99.90;;;;;;5068677;28;20201;-64
2022/12/06 15:39:44;;;;;;;42.07;21.33;;;-2.90;99.90;;;;;;5068048;28;20303;-62
2022/12/06 15:42:20;;;;;;;33.57;15.37;;;-2.90;99.90;;;;;;5068486;28;20243;-65
2022/12/06 15:44:49;;;;;;;14.53;9.63;;;-2.80;99.90;;;;;;5068254;28;20219;-65
2022/12/06 15:47:15;;;;;;;17.10;9.90;;;-2.80;99.90;;;;;;5068379;28;20633;-64
2022/12/06 15:49:42;;;;;;;14.63;8.97;;;-2.80;99.90;;;;;;5067935;28;20201;-65
2022/12/06 15:52:14;;;;;;;13.17;8.53;;;-2.80;99.90;;;;;;5067684;28;20251;-65
2022/12/06 15:54:41;;;;;;;15.57;8.43;;;-2.80;99.90;;;;;;5067964;28;20215;-66
2022/12/06 15:57:08;;;;;;;18.43;8.17;;;-2.80;99.90;;;;;;5067720;28;20211;-63
2022/12/06 15:59:36;;;;;;;11.53;7.53;;;-2.80;99.90;;;;;;5067983;28;20683;-65
2022/12/06 16:02:03;;;;;;;13.50;7.60;;;-2.80;99.90;;;;;;5061812;28;20202;-64
2022/12/06 16:04:32;;;;;;;15.43;8.87;;;-2.80;99.90;;;;;;5054617;28;20205;-63
2022/12/06 16:06:59;;;;;;;13.57;8.60;;;-2.80;99.90;;;;;;5054647;28;20205;-65
2022/12/06 16:09:25;;;;;;;15.57;8.77;;;-2.80;99.90;;;;;;5054539;28;20232;-64
2022/12/06 16:11:52;;;;;;;15.27;9.10;;;-2.70;99.90;;;;;;5054567;28;20236;-63
2022/12/06 16:14:19;;;;;;;16.60;9.20;;;-2.70;99.90;;;;;;5054624;28;20568;-63
2022/12/06 16:16:47;;;;;;;13.53;8.90;;;-2.70;99.90;;;;;;5054340;28;20603;-65
2022/12/06 16:19:14;;;;;;;12.43;8.77;;;-2.70;99.90;;;;;;5054448;28;20211;-63
2022/12/06 16:21:51;;;;;;;15.27;9.27;;;-2.70;99.90;;;;;;5054431;28;20202;-64
2022/12/06 16:24:17;;;;;;;19.10;11.33;;;-2.70;99.90;;;;;;5054240;28;20200;-65
2022/12/06 16:26:44;;;;;;;15.77;10.47;;;-2.70;99.90;;;;;;5054372;28;20205;-65
2022/12/06 16:29:14;;;;;;;14.77;9.37;;;-2.70;99.90;;;;;;5054336;28;20212;-63
2022/12/06 16:31:41;;;;;;;18.30;11.07;;;-2.70;99.90;;;;;;5050544;28;20239;-63
2022/12/06 16:34:09;;;;;;;20.97;12.17;;;-2.70;99.90;;;;;;5052066;28;20225;-65
2022/12/06 16:36:53;;;;;;;18.00;11.67;;;-2.70;99.90;;;;;;5053836;28;20207;-64
2022/12/06 16:39:20;;;;;;;17.00;10.80;;;-2.80;99.90;;;;;;5050254;28;20205;-63
2022/12/06 16:41:47;;;;;;;17.57;10.70;;;-2.70;99.90;;;;;;5053537;28;20213;-64
2022/12/06 16:44:14;;;;;;;16.93;10.03;;;-2.70;99.90;;;;;;5051340;28;20201;-63
2022/12/06 16:46:41;;;;;;;17.17;9.60;;;-2.80;99.90;;;;;;5062788;28;20283;-64
2022/12/06 16:49:17;;;;;;;16.70;10.40;;;-2.80;99.90;;;;;;5057931;28;20205;-64
2022/12/06 16:51:44;;;;;;;19.93;11.23;;;-2.80;99.90;;;;;;5046024;28;20699;-63
2022/12/06 16:54:11;;;;;;;16.37;10.93;;;-2.80;99.90;;;;;;5054021;28;20202;-64
2022/12/06 16:56:37;;;;;;;22.17;12.63;;;-2.80;99.90;;;;;;5046629;28;20201;-63
2022/12/06 16:59:05;;;;;;;25.43;14.23;;;-2.80;99.90;;;;;;5053819;28;20205;-65
2022/12/06 17:01:37;;;;;;;24.00;15.00;;;-2.80;99.90;;;;;;5044782;28;20309;-64
2022/12/06 17:04:07;;;;;;;24.00;14.30;;;-2.80;99.90;;;;;;5052229;28;20243;-65
2022/12/06 17:06:35;;;;;;;26.37;16.47;;;-2.80;99.90;;;;;;5052812;28;20185;-64
2022/12/06 17:09:03;;;;;;;31.20;17.23;;;-2.80;99.90;;;;;;5053136;28;20240;-65
2022/12/06 17:14:17;;;;;;;20.30;12.80;;;-2.90;99.90;;;;;;5052117;28;20184;-65
2022/12/06 17:16:45;;;;;;;20.30;11.97;;;-2.90;99.90;;;;;;5053486;28;20219;-65
2022/12/06 17:19:14;;;;;;;21.00;13.13;;;-2.90;99.90;;;;;;5053364;28;20728;-65
2022/12/06 17:21:42;;;;;;;22.23;13.47;;;-2.90;99.90;;;;;;5053552;28;20202;-65
2022/12/06 17:24:10;;;;;;;20.33;12.40;;;-2.90;99.90;;;;;;5053337;28;20687;-65
2022/12/06 17:26:38;;;;;;;21.10;12.43;;;-2.90;99.90;;;;;;5053055;28;20210;-65
2022/12/06 17:29:05;;;;;;;17.47;11.47;;;-2.90;99.90;;;;;;5052927;28;20212;-65
2022/12/06 17:31:32;;;;;;;18.37;11.30;;;-2.90;99.90;;;;;;5052816;28;20225;-64
2022/12/06 17:34:00;;;;;;;26.23;13.93;;;-2.90;99.90;;;;;;5052993;28;20231;-64
2022/12/06 17:36:28;;;;;;;22.67;13.10;;;-2.90;99.90;;;;;;5052732;28;20206;-64
2022/12/06 17:38:56;;;;;;;25.00;13.43;;;-2.90;99.90;;;;;;5053009;28;20208;-67
2022/12/06 17:44:12;;;;;;;18.00;11.07;;;-2.90;99.90;;;;;;5052565;28;20215;-66
2022/12/06 17:46:40;;;;;;;16.93;10.40;;;-2.80;99.90;;;;;;5052835;28;20213;-67
2022/12/06 17:49:08;;;;;;;18.80;10.70;;;-2.80;99.90;;;;;;5052927;28;20201;-65
2022/12/06 17:51:35;;;;;;;17.13;10.30;;;-2.80;99.90;;;;;;5051182;28;20225;-65
2022/12/06 17:54:03;;;;;;;19.03;10.23;;;-2.80;99.90;;;;;;5051604;28;20233;-65
2022/12/06 17:56:32;;;;;;;15.27;10.33;;;-2.80;99.90;;;;;;5049980;28;20576;-65
2022/12/06 17:59:01;;;;;;;16.93;10.20;;;-2.70;99.90;;;;;;5052554;28;20220;-64
2022/12/06 18:01:28;;;;;;;20.27;11.60;;;-2.70;99.90;;;;;;5051944;28;20203;-65
2022/12/06 22:55:37;;;;;;;20.55;12.52;;;-3.40;99.90;;;;;;5144051;27;20474;-64
2022/12/06 22:58:04;;;;;;;19.07;10.80;;;-3.40;99.90;;;;;;5126760;27;20199;-64
2022/12/06 23:00:30;;;;;;;16.30;10.10;;;-3.30;99.90;;;;;;5127174;27;20218;-64
2022/12/06 23:02:58;;;;;;;19.30;11.20;;;-3.20;99.90;;;;;;5129277;28;20203;-65
2022/12/06 23:05:25;;;;;;;18.33;10.07;;;-3.10;99.90;;;;;;5129658;27;20199;-63
2022/12/06 23:07:52;;;;;;;18.30;11.27;;;-3.10;99.90;;;;;;5129712;28;20202;-64
2022/12/06 23:10:18;;;;;;;14.93;9.87;;;-3.00;99.90;;;;;;5129736;28;20677;-66
2022/12/06 23:12:47;;;;;;;17.43;10.63;;;-2.90;99.90;;;;;;5129593;28;20298;-63
2022/12/06 23:15:13;;;;;;;16.30;10.10;;;-2.90;99.90;;;;;;5129486;28;20229;-64
2022/12/06 23:17:40;;;;;;;15.80;10.30;;;-2.80;99.90;;;;;;5129253;28;20205;-64
2022/12/06 23:20:08;;;;;;;16.77;11.37;;;-2.80;99.90;;;;;;5129506;28;20207;-63
2022/12/06 23:22:35;;;;;;;16.37;9.93;;;-2.80;99.90;;;;;;5129704;27;20218;-63
2022/12/06 23:25:01;;;;;;;17.90;11.13;;;-2.80;99.90;;;;;;5129218;28;20199;-65
2022/12/06 23:27:28;;;;;;;15.17;9.93;;;-2.80;99.90;;;;;;5129175;28;20213;-63
2022/12/06 23:29:57;;;;;;;18.33;10.60;;;-2.80;99.90;;;;;;5128938;28;20213;-62
2022/12/06 23:32:24;;;;;;;18.03;12.33;;;-2.80;99.90;;;;;;5128999;28;20213;-62
2022/12/06 23:34:50;;;;;;;20.13;12.57;;;-2.80;99.90;;;;;;5128704;28;20230;-62
2022/12/06 23:37:17;;;;;;;16.43;11.20;;;-2.80;99.90;;;;;;5128843;28;20217;-62
2022/12/06 23:39:44;;;;;;;17.13;10.77;;;-2.80;99.90;;;;;;5128912;28;20241;-62
2022/12/06 23:42:11;;;;;;;17.90;11.03;;;-2.80;99.90;;;;;;5128682;27;20224;-62
2022/12/06 23:44:38;;;;;;;18.07;10.43;;;-2.80;99.90;;;;;;5595332;22;20407;-63
2022/12/06 23:47:06;;;;;;;18.53;10.60;;;-2.80;99.90;;;;;;5064240;28;20209;-63
2022/12/06 23:49:33;;;;;;;22.27;12.50;;;-2.80;99.90;;;;;;5065030;28;20471;-62
2022/12/06 23:52:00;;;;;;;21.53;12.10;;;-2.80;99.90;;;;;;5067168;28;20208;-61
2022/12/06 23:54:27;;;;;;;22.43;13.13;;;-2.70;99.90;;;;;;5067373;28;20320;-64
2022/12/06 23:56:54;;;;;;;28.93;15.27;;;-2.70;99.90;;;;;;5049150;28;20209;-62
2022/12/06 23:59:20;;;;;;;21.73;12.77;;;-2.70;99.90;;;;;;5047419;28;20285;-62
